Siler City, North Carolina
Current Conditions -  °F | °C
As of 8:35 AM on Wednesday 22 Oct 2014 (Local Time) from K5W8 Reporting Station
Clear Clear  
Wind Chill: 47°   Ceiling: Unl
Heat Index: 49°   Visibility: 10mi
Dew Point: 40°   Wind: 5mph
Humidity: 71%   Direction: 320°NW
Pressure: 30.01"   Gusts: NA
Location:  35.72°N, 79.46°W
Report Text: K5W8 221235Z AUTO 32004KT 10SM CLR 09/04 A3001 RMK AO2 T00930043
Loading
Personal Weather Stations






























Interactive Weather Map New forecast layout! Learn more

10-Day Weather Forecast

Advertisements
Track Severe Weather on mobile